Time;durP1;ratioP1;P1;durP2;ratioP2;P2;SDS_P1;SDS_P2;PMS_P1;PMS_P2;Temp;Humidity;BMP_temperature;BMP_pressure;BME280_temperature;BME280_humidity;BME280_pressure;Samples;Min_cycle;Max_cycle;Signal;HPM_P1;HPM_P2
2023/10/05 00:01:05;;;;;;;5.50;2.13;;;11.30;99.90;;;;;;5065185;28;20173;-86
2023/10/05 00:03:30;;;;;;;2.83;2.42;;;11.30;99.90;;;;;;5066812;28;20203;-86
2023/10/05 00:06:04;;;;;;;2.97;2.47;;;11.40;99.90;;;;;;5064678;28;20606;-86
2023/10/05 00:08:31;;;;;;;2.45;1.90;;;11.40;99.90;;;;;;5066529;28;20187;-85
2023/10/05 00:10:58;;;;;;;3.58;2.55;;;11.50;99.90;;;;;;5067809;28;20184;-85
2023/10/05 00:13:23;;;;;;;1.83;1.60;;;11.00;99.90;;;;;;5065417;28;20215;-85
2023/10/05 00:15:49;;;;;;;2.47;2.13;;;11.20;99.90;;;;;;5065163;28;20189;-84
2023/10/05 00:18:19;;;;;;;4.23;2.90;;;11.40;99.90;;;;;;5066817;28;20760;-85
2023/10/05 00:20:44;;;;;;;3.25;2.13;;;10.90;99.90;;;;;;5066448;28;20188;-86
2023/10/05 00:23:11;;;;;;;2.80;2.27;;;10.90;99.90;;;;;;5066689;28;20200;-85
2023/10/05 00:25:39;;;;;;;2.15;1.95;;;10.90;99.90;;;;;;5083100;28;20210;-85
2023/10/05 00:28:09;;;;;;;3.10;2.50;;;10.50;99.90;;;;;;5066583;28;20190;-85
2023/10/05 00:30:35;;;;;;;2.58;2.00;;;11.00;99.90;;;;;;5063274;28;20305;-85
2023/10/05 00:33:00;;;;;;;3.03;2.40;;;10.80;99.90;;;;;;5068746;28;20290;-86
2023/10/05 00:35:28;;;;;;;2.57;1.70;;;11.20;99.90;;;;;;5066975;28;20252;-86
2023/10/05 00:37:57;;;;;;;5.28;2.30;;;11.20;99.90;;;;;;5068657;28;20200;-85
2023/10/05 00:40:42;;;;;;;1.75;1.65;;;11.10;99.90;;;;;;5082356;28;20867;-85
2023/10/05 00:45:47;;;;;;;5.75;2.58;;;10.90;99.90;;;;;;5068163;28;20546;-86
2023/10/05 00:48:27;;;;;;;4.40;2.30;;;10.90;99.90;;;;;;5064941;28;20192;-84
2023/10/05 00:51:01;;;;;;;2.97;2.00;;;10.60;99.90;;;;;;5063082;28;20198;-85
2023/10/05 00:53:30;;;;;;;4.72;2.45;;;10.40;99.90;;;;;;5064355;28;20211;-86
2023/10/05 00:56:11;;;;;;;3.25;2.42;;;10.60;99.90;;;;;;5065536;28;20268;-83
2023/10/05 00:58:44;;;;;;;3.30;2.10;;;11.30;99.90;;;;;;5066236;28;20344;-86
2023/10/05 01:01:27;;;;;;;2.97;2.30;;;10.80;99.90;;;;;;5063687;28;20687;-86
2023/10/05 01:09:22;;;;;;;3.67;2.20;;;11.10;99.90;;;;;;5067758;28;20624;-86
2023/10/05 01:12:02;;;;;;;2.10;1.88;;;10.70;99.90;;;;;;5065750;28;20206;-86
2023/10/05 01:14:51;;;;;;;2.38;2.00;;;10.90;99.90;;;;;;5063122;28;20259;-84
2023/10/05 01:17:22;;;;;;;4.00;2.35;;;10.40;99.90;;;;;;5061021;28;20253;-86
2023/10/05 01:19:54;;;;;;;2.20;2.00;;;10.70;99.90;;;;;;5064913;28;20188;-86
2023/10/05 01:22:21;;;;;;;3.05;2.10;;;10.60;99.90;;;;;;5067587;28;20237;-85
2023/10/05 01:24:51;;;;;;;3.42;2.15;;;11.00;99.90;;;;;;5065010;28;20593;-85
2023/10/05 01:27:18;;;;;;;2.28;2.03;;;10.60;99.90;;;;;;5064526;28;20647;-85
2023/10/05 01:29:44;;;;;;;3.65;2.00;;;10.90;99.90;;;;;;5062909;28;20193;-85
2023/10/05 01:32:16;;;;;;;2.63;2.10;;;10.60;99.90;;;;;;5064627;28;20572;-85
2023/10/05 01:34:42;;;;;;;3.50;2.63;;;10.50;99.90;;;;;;5066747;28;20191;-85
2023/10/05 01:37:09;;;;;;;3.78;2.50;;;11.00;99.90;;;;;;5066957;28;20198;-86
2023/10/05 01:39:41;;;;;;;1.70;1.60;;;10.50;99.90;;;;;;5066368;28;20594;-85
2023/10/05 01:42:06;;;;;;;2.38;1.92;;;10.10;99.90;;;;;;5067242;28;20192;-85
2023/10/05 01:44:36;;;;;;;4.63;2.33;;;10.80;99.90;;;;;;5065475;28;20192;-85
2023/10/05 01:47:02;;;;;;;2.38;2.15;;;10.10;99.90;;;;;;5064407;28;20253;-85
2023/10/05 01:49:27;;;;;;;3.17;2.20;;;10.60;99.90;;;;;;5064817;28;20654;-85
2023/10/05 01:51:53;;;;;;;4.60;2.37;;;10.50;99.90;;;;;;5070458;28;20181;-86
2023/10/05 01:54:24;;;;;;;3.53;2.30;;;10.80;99.90;;;;;;5070222;28;20195;-85
2023/10/05 01:56:50;;;;;;;2.80;2.10;;;10.10;99.90;;;;;;5067911;28;20569;-85
2023/10/05 01:59:21;;;;;;;4.53;2.90;;;10.80;99.90;;;;;;5069810;28;20195;-85
2023/10/05 02:01:47;;;;;;;1.88;1.67;;;10.60;99.90;;;;;;5068467;28;20600;-85
2023/10/05 02:04:15;;;;;;;3.45;2.40;;;10.90;99.90;;;;;;5066556;28;20695;-85
2023/10/05 02:06:41;;;;;;;2.92;1.88;;;10.60;99.90;;;;;;5068327;28;20318;-85
2023/10/05 02:09:10;;;;;;;2.90;2.40;;;10.40;99.90;;;;;;5070741;28;20644;-85
2023/10/05 02:11:36;;;;;;;5.35;2.78;;;10.30;99.90;;;;;;5068100;28;20411;-85
2023/10/05 02:14:03;;;;;;;2.70;2.03;;;10.80;99.90;;;;;;5068466;28;20345;-84
2023/10/05 02:16:30;;;;;;;5.32;2.00;;;11.10;99.90;;;;;;5068550;28;20827;-86
2023/10/05 02:18:56;;;;;;;3.33;1.90;;;10.70;99.90;;;;;;5067486;28;20183;-85
2023/10/05 02:21:30;;;;;;;2.78;2.30;;;10.70;99.90;;;;;;5069208;28;20561;-86
2023/10/05 02:24:09;;;;;;;4.07;2.20;;;10.60;99.90;;;;;;5068000;28;20252;-86
2023/10/05 02:26:34;;;;;;;2.50;2.00;;;10.40;99.90;;;;;;5068884;28;20181;-84
2023/10/05 02:29:13;;;;;;;2.63;2.00;;;10.90;99.90;;;;;;5070131;28;20176;-85
2023/10/05 02:31:50;;;;;;;4.93;2.38;;;10.70;99.90;;;;;;5068680;28;20240;-85
2023/10/05 02:34:19;;;;;;;4.53;2.63;;;11.00;99.90;;;;;;5068539;28;20199;-86
2023/10/05 02:36:44;;;;;;;4.22;2.15;;;10.90;99.90;;;;;;5066174;28;20891;-85
2023/10/05 02:39:10;;;;;;;3.20;2.60;;;10.80;99.90;;;;;;5068942;28;20186;-86
2023/10/05 02:41:39;;;;;;;2.50;1.97;;;10.80;99.90;;;;;;5070375;28;20217;-85
2023/10/05 02:44:16;;;;;;;5.18;2.88;;;10.70;99.90;;;;;;5069738;28;20626;-86
2023/10/05 02:46:42;;;;;;;3.17;2.70;;;10.60;99.90;;;;;;5077287;28;20228;-86
2023/10/05 02:49:09;;;;;;;5.50;2.30;;;10.60;99.90;;;;;;5069476;28;20231;-85
2023/10/05 02:51:35;;;;;;;2.10;1.80;;;10.30;99.90;;;;;;5067496;28;20241;-86
2023/10/05 02:54:07;;;;;;;2.25;2.05;;;10.60;99.90;;;;;;5086628;28;20200;-86
2023/10/05 02:56:33;;;;;;;2.10;1.90;;;10.00;99.90;;;;;;5068642;28;20195;-84
2023/10/05 02:59:02;;;;;;;2.67;2.00;;;10.80;99.90;;;;;;5067598;28;20209;-86
2023/10/05 03:01:32;;;;;;;3.50;2.20;;;10.50;99.90;;;;;;5067715;28;20428;-85
2023/10/05 03:04:04;;;;;;;2.63;2.20;;;11.00;99.90;;;;;;5067507;28;20210;-85
2023/10/05 03:06:30;;;;;;;5.20;2.50;;;10.50;99.90;;;;;;5067942;28;20189;-85
2023/10/05 03:09:01;;;;;;;2.63;2.20;;;10.70;99.90;;;;;;5068125;28;20542;-86
2023/10/05 03:11:33;;;;;;;3.13;2.22;;;10.70;99.90;;;;;;5070638;28;20545;-85
2023/10/05 03:13:59;;;;;;;4.00;2.55;;;10.60;99.90;;;;;;5083372;28;20242;-86
2023/10/05 03:16:28;;;;;;;2.23;2.03;;;10.90;99.90;;;;;;5068892;28;20182;-86
2023/10/05 03:18:54;;;;;;;4.05;2.20;;;10.50;99.90;;;;;;5062717;28;20645;-86
2023/10/05 03:21:21;;;;;;;8.57;2.70;;;11.00;99.90;;;;;;5066630;28;20194;-86
2023/10/05 03:23:47;;;;;;;6.95;2.63;;;10.30;99.90;;;;;;5068600;28;20203;-85
2023/10/05 03:26:17;;;;;;;3.50;2.20;;;10.50;99.90;;;;;;5065188;28;20210;-86
2023/10/05 03:28:42;;;;;;;2.60;2.20;;;10.90;99.90;;;;;;5065832;28;20285;-85
2023/10/05 03:31:13;;;;;;;6.70;2.50;;;11.30;99.90;;;;;;5065061;28;20293;-87
2023/10/05 03:33:39;;;;;;;4.43;2.60;;;11.10;99.90;;;;;;5070139;28;20435;-86
2023/10/05 03:36:14;;;;;;;2.80;1.77;;;11.20;99.90;;;;;;5068472;28;20759;-86
2023/10/05 03:38:42;;;;;;;2.97;1.88;;;10.80;99.90;;;;;;5084124;28;20258;-86
2023/10/05 03:41:15;;;;;;;3.92;2.70;;;11.00;99.90;;;;;;5065583;28;20208;-86
2023/10/05 03:43:41;;;;;;;2.95;2.35;;;10.70;99.90;;;;;;5067740;28;20814;-87
2023/10/05 03:46:07;;;;;;;3.00;2.13;;;11.10;99.90;;;;;;5064627;28;20187;-86
2023/10/05 03:48:38;;;;;;;2.77;2.30;;;10.50;99.90;;;;;;5069050;28;20449;-86
2023/10/05 03:51:08;;;;;;;3.13;2.08;;;10.70;99.90;;;;;;5069314;28;20441;-87
2023/10/05 03:53:34;;;;;;;3.60;2.45;;;11.10;99.90;;;;;;5066152;28;20212;-86
2023/10/05 03:56:00;;;;;;;3.70;2.40;;;10.50;99.90;;;;;;5063804;28;20281;-87
2023/10/05 03:58:25;;;;;;;5.20;2.40;;;10.90;99.90;;;;;;5065561;28;20267;-87
2023/10/05 04:00:51;;;;;;;2.27;2.07;;;10.50;99.90;;;;;;5064150;28;20228;-87
2023/10/05 04:03:19;;;;;;;4.00;2.60;;;10.50;99.90;;;;;;5066845;28;20286;-86
2023/10/05 04:05:44;;;;;;;2.78;2.05;;;11.00;99.90;;;;;;5068587;28;20199;-87
2023/10/05 04:08:16;;;;;;;4.23;2.40;;;11.40;99.90;;;;;;5064291;28;20549;-87
2023/10/05 04:10:49;;;;;;;3.10;2.30;;;10.80;99.90;;;;;;5061315;28;20188;-90
2023/10/05 04:13:17;;;;;;;4.93;2.45;;;10.90;99.90;;;;;;5061811;28;20561;-85
2023/10/05 04:15:43;;;;;;;3.88;2.22;;;10.80;99.90;;;;;;5053844;28;20276;-85
2023/10/05 04:18:13;;;;;;;3.00;2.07;;;10.80;99.90;;;;;;5061821;28;20210;-86
2023/10/05 04:20:43;;;;;;;3.75;2.60;;;10.90;99.90;;;;;;5059944;28;20534;-86
2023/10/05 04:23:25;;;;;;;3.47;2.30;;;10.90;99.90;;;;;;5061477;28;20664;-86
2023/10/05 04:25:52;;;;;;;3.35;2.85;;;10.70;99.90;;;;;;5062626;28;20191;-86
2023/10/05 04:28:22;;;;;;;4.20;2.97;;;10.50;99.90;;;;;;5061302;28;20193;-86
2023/10/05 04:30:49;;;;;;;3.47;2.60;;;10.50;99.90;;;;;;5063568;28;20200;-86
2023/10/05 04:33:17;;;;;;;3.92;2.53;;;10.30;99.90;;;;;;5065602;28;20243;-87
2023/10/05 04:35:45;;;;;;;2.53;2.33;;;11.10;99.90;;;;;;5063594;28;20182;-88
2023/10/05 04:38:10;;;;;;;3.50;2.40;;;11.10;99.90;;;;;;5061090;28;20202;-87
2023/10/05 04:40:38;;;;;;;3.50;2.03;;;10.60;99.90;;;;;;5065844;28;20236;-87
2023/10/05 04:43:05;;;;;;;4.40;2.53;;;10.60;99.90;;;;;;5068464;28;20191;-87
2023/10/05 04:45:31;;;;;;;3.15;2.13;;;10.70;99.90;;;;;;5066782;28;20567;-86
2023/10/05 04:47:58;;;;;;;3.43;2.57;;;11.40;99.90;;;;;;5063906;28;20650;-85
2023/10/05 04:50:26;;;;;;;2.53;2.22;;;11.20;99.90;;;;;;5063344;28;20195;-86
2023/10/05 04:52:52;;;;;;;2.75;2.10;;;11.20;99.90;;;;;;5062503;28;20290;-87
2023/10/05 04:55:22;;;;;;;2.37;2.17;;;11.20;99.90;;;;;;5061462;28;20329;-86
2023/10/05 04:57:52;;;;;;;3.85;2.42;;;11.50;99.90;;;;;;5064394;28;20495;-87
2023/10/05 05:03:17;;;;;;;3.42;2.35;;;11.10;99.90;;;;;;5067815;28;20252;-88
2023/10/05 05:08:32;;;;;;;2.92;2.53;;;11.30;99.90;;;;;;5064938;28;20191;-89
2023/10/05 05:11:00;;;;;;;4.90;2.40;;;11.20;99.90;;;;;;5063579;28;20175;-87
2023/10/05 05:13:27;;;;;;;2.88;2.03;;;11.10;99.90;;;;;;5061195;28;20215;-88
2023/10/05 05:15:53;;;;;;;5.55;3.15;;;11.10;99.90;;;;;;5061994;28;20198;-88
2023/10/05 05:18:19;;;;;;;7.83;3.10;;;11.10;99.90;;;;;;5064948;28;20206;-84
2023/10/05 05:20:45;;;;;;;6.20;2.33;;;11.10;99.90;;;;;;5066948;28;21189;-84
2023/10/05 05:23:13;;;;;;;2.70;2.50;;;10.80;99.90;;;;;;5067910;28;20576;-81
2023/10/05 05:25:39;;;;;;;4.95;2.85;;;11.20;99.90;;;;;;5068456;28;20715;-84
2023/10/05 05:28:05;;;;;;;2.25;2.05;;;11.10;99.90;;;;;;5065923;28;20194;-82
2023/10/05 05:30:36;;;;;;;4.63;2.90;;;10.90;99.90;;;;;;5069814;28;20197;-83
2023/10/05 05:33:09;;;;;;;9.35;5.50;;;11.10;99.90;;;;;;5064209;28;20786;-83
2023/10/05 05:35:35;;;;;;;5.03;3.15;;;11.60;99.90;;;;;;5066361;28;20529;-83
2023/10/05 05:38:02;;;;;;;3.58;2.70;;;10.90;99.90;;;;;;5069028;28;20216;-83
2023/10/05 05:40:29;;;;;;;3.65;2.70;;;11.20;99.90;;;;;;5070429;28;20717;-85
2023/10/05 05:42:56;;;;;;;2.90;2.45;;;11.30;99.90;;;;;;5061799;28;20214;-84
2023/10/05 05:45:22;;;;;;;4.85;2.80;;;11.20;99.90;;;;;;5065736;28;20185;-85
2023/10/05 05:47:47;;;;;;;6.00;2.90;;;11.60;99.90;;;;;;5064930;28;20218;-85
2023/10/05 05:50:17;;;;;;;3.90;2.60;;;11.70;99.90;;;;;;5069652;28;20545;-85
2023/10/05 05:52:45;;;;;;;3.28;2.70;;;11.30;99.90;;;;;;5063830;28;20231;-85
2023/10/05 05:55:13;;;;;;;6.30;3.50;;;11.70;99.90;;;;;;5066602;28;20574;-86
2023/10/05 05:57:39;;;;;;;4.95;3.10;;;11.30;99.90;;;;;;5069277;28;20206;-84
2023/10/05 06:00:17;;;;;;;3.35;2.67;;;11.70;99.90;;;;;;5070889;28;20215;-86
2023/10/05 06:02:43;;;;;;;5.20;2.50;;;11.30;99.90;;;;;;5066742;28;20687;-86
2023/10/05 06:05:12;;;;;;;3.07;2.77;;;11.10;99.90;;;;;;5067064;28;20198;-84
2023/10/05 06:07:40;;;;;;;3.80;2.40;;;11.60;99.90;;;;;;5072399;28;20969;-85
2023/10/05 06:10:13;;;;;;;4.65;2.72;;;11.90;99.90;;;;;;5072480;28;20188;-83
2023/10/05 06:12:40;;;;;;;3.60;2.80;;;11.60;99.90;;;;;;5071033;28;20215;-83
2023/10/05 06:15:06;;;;;;;3.60;2.80;;;11.20;99.90;;;;;;5063628;28;20199;-86
2023/10/05 06:17:34;;;;;;;4.78;2.95;;;11.60;99.90;;;;;;5068648;28;20212;-86
2023/10/05 06:20:05;;;;;;;4.28;2.40;;;12.00;99.90;;;;;;5067938;28;20241;-86
2023/10/05 06:22:31;;;;;;;3.58;2.53;;;11.30;99.90;;;;;;5067366;28;20220;-87
2023/10/05 06:24:56;;;;;;;4.70;3.20;;;12.20;99.90;;;;;;5066612;28;20184;-86
2023/10/05 06:27:22;;;;;;;6.80;2.90;;;11.80;99.90;;;;;;5065533;28;20209;-86
2023/10/05 06:29:49;;;;;;;3.60;2.50;;;11.80;99.90;;;;;;5079643;28;20181;-86
2023/10/05 06:32:14;;;;;;;3.95;3.40;;;12.10;99.90;;;;;;5083602;28;20227;-84
2023/10/05 06:34:40;;;;;;;2.23;2.03;;;11.70;99.90;;;;;;5082431;28;20177;-85
2023/10/05 06:37:05;;;;;;;4.30;2.90;;;11.80;99.90;;;;;;5073103;28;20675;-85
2023/10/05 06:39:32;;;;;;;4.77;2.83;;;12.10;99.90;;;;;;5072118;28;20267;-84
2023/10/05 06:41:57;;;;;;;4.95;2.45;;;12.50;99.90;;;;;;5074699;28;20192;-82
2023/10/05 06:44:23;;;;;;;3.60;2.80;;;12.20;99.90;;;;;;5075312;28;20264;-85
2023/10/05 06:46:49;;;;;;;7.03;4.40;;;12.60;99.90;;;;;;5074177;28;20184;-83
2023/10/05 06:49:14;;;;;;;3.60;2.90;;;12.30;99.90;;;;;;5078503;28;20777;-85
2023/10/05 06:51:43;;;;;;;3.10;2.57;;;12.60;99.90;;;;;;5071865;28;20461;-84
2023/10/05 06:54:09;;;;;;;3.85;3.20;;;12.30;99.90;;;;;;5066455;28;20626;-84
2023/10/05 06:56:35;;;;;;;4.78;2.70;;;12.60;99.90;;;;;;5067903;28;20601;-85
2023/10/05 06:59:01;;;;;;;9.47;3.60;;;12.60;99.90;;;;;;5067479;28;20182;-86
2023/10/05 07:01:27;;;;;;;4.30;2.97;;;12.80;99.90;;;;;;5063971;28;20185;-85
2023/10/05 07:03:52;;;;;;;3.13;2.83;;;12.60;99.90;;;;;;5072512;28;20459;-86
2023/10/05 07:06:22;;;;;;;4.43;3.23;;;12.50;99.90;;;;;;5062670;28;20181;-84
2023/10/05 07:08:49;;;;;;;4.38;3.05;;;12.80;99.90;;;;;;5069795;28;20439;-88
2023/10/05 07:11:16;;;;;;;8.57;3.22;;;13.10;99.90;;;;;;5071018;28;20344;-84
2023/10/05 07:13:41;;;;;;;4.80;2.53;;;13.20;99.90;;;;;;5071852;28;20217;-82
2023/10/05 07:16:07;;;;;;;5.07;3.13;;;12.80;99.90;;;;;;5069212;28;20185;-84
2023/10/05 07:18:32;;;;;;;3.60;2.93;;;12.90;99.90;;;;;;5072029;28;20864;-87
2023/10/05 07:20:58;;;;;;;3.37;2.90;;;13.20;99.90;;;;;;5067335;28;20181;-85
2023/10/05 07:23:23;;;;;;;4.37;2.73;;;13.20;99.90;;;;;;5068407;28;20295;-85
2023/10/05 07:25:49;;;;;;;5.20;3.67;;;13.30;99.90;;;;;;5070937;28;20181;-83
2023/10/05 07:28:15;;;;;;;3.23;2.93;;;13.20;99.90;;;;;;5068265;28;20193;-86
2023/10/05 07:30:45;;;;;;;3.83;2.80;;;13.70;99.90;;;;;;5067729;28;20185;-86
2023/10/05 07:33:11;;;;;;;7.28;3.65;;;13.70;99.90;;;;;;5068397;28;20268;-87
2023/10/05 07:35:38;;;;;;;5.20;3.28;;;14.00;99.90;;;;;;5069093;28;20221;-84
2023/10/05 07:38:05;;;;;;;3.88;2.97;;;13.70;99.90;;;;;;5071019;28;20204;-86
2023/10/05 07:40:30;;;;;;;5.80;3.40;;;14.20;99.90;;;;;;5067798;28;20250;-85
2023/10/05 07:42:56;;;;;;;8.20;2.47;;;14.20;99.90;;;;;;5072364;28;20209;-86
2023/10/05 07:45:23;;;;;;;8.30;3.20;;;14.80;99.90;;;;;;5068228;28;20185;-87
2023/10/05 07:47:48;;;;;;;7.22;6.05;;;14.70;99.90;;;;;;5068505;28;20193;-87
2023/10/05 07:50:14;;;;;;;6.10;3.70;;;15.10;99.90;;;;;;5069170;28;20196;-86
2023/10/05 07:52:43;;;;;;;4.72;3.30;;;14.60;99.90;;;;;;5070297;28;20250;-85
2023/10/05 07:55:09;;;;;;;8.30;3.92;;;14.80;99.90;;;;;;5070303;28;20223;-88
2023/10/05 07:57:35;;;;;;;4.07;3.20;;;14.30;99.90;;;;;;5066861;28;20205;-83
2023/10/05 08:00:02;;;;;;;6.80;4.13;;;15.20;99.90;;;;;;5064576;28;20459;-88
2023/10/05 08:02:27;;;;;;;3.55;3.10;;;15.40;99.90;;;;;;5066262;28;20211;-88
2023/10/05 08:04:53;;;;;;;4.20;3.70;;;15.70;99.90;;;;;;5065975;28;20541;-91
2023/10/05 08:07:19;;;;;;;5.80;3.63;;;15.70;99.90;;;;;;5059498;28;20630;-87
2023/10/05 08:09:46;;;;;;;5.07;3.00;;;15.90;99.90;;;;;;5064587;28;20457;-88
2023/10/05 08:12:12;;;;;;;7.22;3.60;;;15.90;99.90;;;;;;5071575;22;20737;-88
2023/10/05 08:17:46;;;;;;;4.60;3.08;;;16.60;99.90;;;;;;4987992;28;20736;-88
2023/10/05 08:20:34;;;;;;;5.68;2.78;;;16.50;99.90;;;;;;4988875;28;20248;-84
2023/10/05 08:23:02;;;;;;;7.80;3.30;;;16.30;99.90;;;;;;4991150;28;20204;-84
2023/10/05 08:25:28;;;;;;;6.20;3.20;;;16.70;99.90;;;;;;4988628;28;20226;-85
2023/10/05 08:28:11;;;;;;;4.93;3.07;;;16.50;99.90;;;;;;4992234;28;20682;-85
2023/10/05 08:31:07;;;;;;;6.97;2.75;;;17.70;99.90;;;;;;5051087;28;20174;-84
2023/10/05 08:33:43;;;;;;;4.90;3.05;;;16.70;98.80;;;;;;5521174;22;20230;-85
2023/10/05 08:37:08;;;;;;;4.28;2.80;;;17.60;99.90;;;;;;5051201;28;20197;-85
2023/10/05 08:39:36;;;;;;;9.52;3.55;;;17.40;99.10;;;;;;5042930;28;20185;-84
2023/10/05 08:50:07;;;;;;;5.90;3.40;;;17.50;97.80;;;;;;5051312;28;20684;-83
2023/10/05 08:53:07;;;;;;;;;;;;;;;;;;;;;
2023/10/05 08:56:26;;;;;;;5.30;3.45;;;17.50;97.70;;;;;;5047324;28;20239;-83
2023/10/05 08:58:54;;;;;;;5.38;3.80;;;17.60;97.70;;;;;;5047408;28;20213;-85
2023/10/05 09:13:14;;;;;;;7.25;3.25;;;17.20;97.00;;;;;;5053479;28;20212;-84
2023/10/05 09:15:51;;;;;;;6.45;3.90;;;17.60;97.10;;;;;;5067095;28;20182;-83
2023/10/05 09:18:25;;;;;;;7.55;5.20;;;17.90;99.10;;;;;;5049150;28;20327;-83
2023/10/05 09:20:51;;;;;;;9.82;4.30;;;18.70;98.80;;;;;;5063978;28;20178;-83
2023/10/05 09:23:37;;;;;;;8.88;3.88;;;19.50;98.70;;;;;;5050079;28;20251;-84
2023/10/05 09:26:06;;;;;;;5.43;3.92;;;16.50;97.00;;;;;;5042235;28;20257;-86
2023/10/05 09:29:12;;;;;;;7.97;3.90;;;17.80;97.90;;;;;;5041879;28;20247;-88
2023/10/05 09:31:50;;;;;;;7.45;3.72;;;19.60;97.80;;;;;;5059658;28;20190;-90
2023/10/05 09:35:01;;;;;;;7.05;3.45;;;18.40;95.80;;;;;;5046280;28;20190;-87
2023/10/05 09:37:28;;;;;;;6.15;4.20;;;16.90;95.20;;;;;;5043425;28;20208;-90
2023/10/05 09:46:03;;;;;;;5.53;3.20;;;18.90;95.30;;;;;;5110060;22;20236;-84
2023/10/05 09:48:37;;;;;;;6.35;4.00;;;20.00;96.20;;;;;;5023582;28;20280;-84
2023/10/05 09:51:06;;;;;;;5.15;3.40;;;19.70;96.00;;;;;;5068110;28;20629;-84
2023/10/05 09:53:43;;;;;;;8.23;4.95;;;19.60;94.70;;;;;;5060215;23;20765;-85
2023/10/05 09:56:17;;;;;;;4.30;3.55;;;20.60;94.90;;;;;;5042297;28;20193;-86
2023/10/05 09:58:44;;;;;;;7.82;4.22;;;21.00;96.00;;;;;;5063165;28;20212;-86
2023/10/05 10:01:21;;;;;;;8.15;4.07;;;20.40;94.40;;;;;;5048981;28;20188;-86
2023/10/05 10:03:50;;;;;;;5.88;3.83;;;19.50;94.70;;;;;;5029599;28;20607;-86
2023/10/05 10:06:19;;;;;;;8.65;4.40;;;19.20;94.10;;;;;;5028060;28;20281;-89
2023/10/05 10:08:51;;;;;;;7.32;4.63;;;19.20;94.20;;;;;;5026774;28;21302;-86
2023/10/05 10:11:20;;;;;;;7.80;3.80;;;19.30;93.90;;;;;;5032225;28;20182;-86
2023/10/05 10:14:00;;;;;;;5.07;3.85;;;18.80;93.80;;;;;;5031937;28;20244;-87
2023/10/05 10:16:27;;;;;;;6.82;4.15;;;18.60;94.20;;;;;;5030414;28;20174;-86
2023/10/05 10:19:04;;;;;;;7.03;4.03;;;18.60;94.20;;;;;;5044791;28;20210;-87
2023/10/05 10:21:46;;;;;;;7.70;3.70;;;18.10;93.80;;;;;;5033047;28;20182;-88
2023/10/05 10:56:54;;;;;;;8.70;5.82;;;19.40;91.80;;;;;;5281922;22;20268;-87
2023/10/05 10:59:41;;;;;;;9.27;4.50;;;20.00;92.60;;;;;;5034021;28;20282;-88
2023/10/05 11:02:14;;;;;;;5.93;3.70;;;21.50;92.90;;;;;;5031665;28;20198;-89
2023/10/05 11:29:59;;;;;;;5.57;3.08;;;18.70;83.70;;;;;;5069729;28;20644;-87
2023/10/05 11:32:28;;;;;;;5.97;3.30;;;20.20;86.60;;;;;;5070855;28;20204;-85
2023/10/05 11:34:56;;;;;;;5.03;3.58;;;20.70;89.70;;;;;;5070761;28;21718;-88
2023/10/05 11:37:25;;;;;;;9.02;3.95;;;21.40;90.90;;;;;;5068344;28;20259;-88
2023/10/05 11:39:50;;;;;;;4.55;3.67;;;20.70;90.80;;;;;;5069079;28;20205;-88
2023/10/05 11:42:34;;;;;;;8.00;3.80;;;21.50;89.30;;;;;;5069872;28;20251;-88
2023/10/05 11:45:03;;;;;;;6.15;3.13;;;20.60;89.30;;;;;;5071799;28;20185;-88
2023/10/05 11:47:35;;;;;;;6.35;3.28;;;22.20;90.10;;;;;;5072919;28;20711;-88
2023/10/05 11:50:08;;;;;;;7.95;4.70;;;21.70;90.10;;;;;;5069393;28;20284;-87
2023/10/05 11:52:38;;;;;;;6.78;4.07;;;19.80;88.40;;;;;;5069171;28;20760;-85
2023/10/05 11:55:06;;;;;;;8.45;3.63;;;19.50;88.00;;;;;;5068686;28;20177;-84
2023/10/05 11:57:32;;;;;;;6.47;3.35;;;19.90;89.00;;;;;;5066917;28;20213;-86
2023/10/05 11:59:59;;;;;;;9.20;3.70;;;21.50;90.10;;;;;;5067042;28;20254;-89
2023/10/05 12:02:26;;;;;;;6.05;4.00;;;20.60;89.60;;;;;;5067586;28;20207;-89
2023/10/05 12:04:52;;;;;;;5.55;3.50;;;20.60;89.50;;;;;;5067116;28;20173;-90
2023/10/05 12:07:17;;;;;;;6.43;3.80;;;20.50;89.60;;;;;;5071415;28;20564;-90
2023/10/05 12:09:43;;;;;;;6.00;3.23;;;20.40;90.00;;;;;;5069871;28;20493;-86
2023/10/05 12:12:13;;;;;;;6.70;3.23;;;20.60;90.00;;;;;;5068371;28;20204;-88
2023/10/05 12:14:41;;;;;;;5.22;3.45;;;20.20;88.20;;;;;;5069323;28;20760;-88
2023/10/05 12:17:06;;;;;;;4.60;2.72;;;19.90;88.70;;;;;;5069124;28;20330;-88
2023/10/05 12:19:33;;;;;;;9.23;3.73;;;20.30;88.60;;;;;;5065446;28;20272;-85
2023/10/05 12:50:42;;;;;;;7.15;3.10;;;20.90;92.20;;;;;;5069802;28;20202;-85
2023/10/05 12:53:08;;;;;;;4.57;3.00;;;19.60;91.40;;;;;;5071199;28;20200;-86
2023/10/05 12:55:35;;;;;;;4.73;2.83;;;20.10;91.90;;;;;;5071348;28;20665;-86
2023/10/05 12:58:01;;;;;;;5.55;3.15;;;20.90;91.70;;;;;;5074290;28;20971;-86
2023/10/05 13:00:31;;;;;;;6.47;3.55;;;20.80;92.10;;;;;;5065076;28;20185;-86
2023/10/05 13:03:00;;;;;;;4.50;3.45;;;19.20;91.40;;;;;;5073196;28;20220;-86
2023/10/05 13:05:31;;;;;;;5.38;3.15;;;19.40;92.10;;;;;;5067662;28;20181;-86
2023/10/05 13:08:01;;;;;;;6.43;4.20;;;18.40;90.80;;;;;;5071013;28;20233;-89
2023/10/05 13:10:32;;;;;;;6.72;3.72;;;19.30;90.90;;;;;;5064902;28;20181;-85
2023/10/05 13:13:09;;;;;;;8.15;3.60;;;18.80;91.30;;;;;;5068759;28;20204;-86
2023/10/05 13:15:35;;;;;;;6.43;3.50;;;18.50;91.70;;;;;;5075597;28;20180;-87
2023/10/05 13:18:19;;;;;;;6.50;3.08;;;19.00;91.90;;;;;;5081079;28;20295;-84
2023/10/05 13:20:50;;;;;;;4.55;3.03;;;19.00;91.50;;;;;;5069136;28;20207;-86
2023/10/05 13:23:19;;;;;;;10.10;3.30;;;18.70;91.10;;;;;;5070174;28;20212;-87
2023/10/05 13:25:48;;;;;;;4.80;3.67;;;19.00;91.50;;;;;;5068120;28;20276;-88
2023/10/05 13:28:15;;;;;;;6.13;3.53;;;19.00;91.50;;;;;;5069148;28;20272;-87
2023/10/05 13:30:43;;;;;;;7.72;3.50;;;19.00;91.70;;;;;;5066077;28;20189;-88
2023/10/05 13:33:49;;;;;;;8.43;3.72;;;18.80;91.90;;;;;;5095486;22;20289;-87
2023/10/05 13:36:15;;;;;;;5.93;3.05;;;19.00;92.00;;;;;;4969873;28;20195;-86
2023/10/05 13:38:43;;;;;;;6.73;3.33;;;19.80;93.30;;;;;;4971403;28;20222;-86
2023/10/05 13:41:35;;;;;;;7.25;3.83;;;19.00;92.70;;;;;;4991649;28;20187;-85
2023/10/05 13:44:00;;;;;;;7.28;3.95;;;18.90;93.10;;;;;;5018390;28;20537;-88
2023/10/05 13:46:35;;;;;;;6.23;2.93;;;19.80;92.90;;;;;;5069299;28;20223;-86
2023/10/05 13:49:03;;;;;;;5.68;3.40;;;20.00;93.20;;;;;;5061604;28;20201;-88
2023/10/05 13:51:36;;;;;;;7.57;2.95;;;19.10;92.70;;;;;;5068147;28;20275;-86
2023/10/05 13:54:18;;;;;;;5.30;3.08;;;19.70;94.70;;;;;;5067851;28;20204;-86
2023/10/05 13:56:56;;;;;;;6.25;3.10;;;18.60;93.10;;;;;;5067380;28;20240;-88
2023/10/05 13:59:26;;;;;;;6.68;3.83;;;19.60;94.40;;;;;;5063781;28;20189;-88
2023/10/05 14:01:52;;;;;;;6.50;3.88;;;18.50;94.50;;;;;;5061979;28;20231;-89
2023/10/05 14:04:23;;;;;;;9.20;4.03;;;20.80;95.30;;;;;;5066407;28;20188;-89
2023/10/05 14:07:02;;;;;;;6.88;3.38;;;20.40;94.60;;;;;;5066726;28;20187;-89
2023/10/05 14:09:28;;;;;;;7.97;3.90;;;20.40;94.50;;;;;;5072797;28;20185;-89
2023/10/05 14:11:54;;;;;;;10.32;4.15;;;20.40;94.60;;;;;;5065182;28;20213;-89
2023/10/05 14:14:42;;;;;;;8.20;3.70;;;18.60;93.90;;;;;;5058040;28;20223;-86
2023/10/05 14:17:08;;;;;;;5.90;3.47;;;19.70;94.70;;;;;;5073860;28;20694;-87
2023/10/05 14:19:33;;;;;;;7.13;3.97;;;19.70;93.70;;;;;;5064990;28;20276;-86
2023/10/05 14:22:12;;;;;;;6.47;4.43;;;20.50;94.90;;;;;;5063186;28;20196;-86
2023/10/05 14:24:40;;;;;;;6.55;3.13;;;18.60;92.80;;;;;;5055053;28;20648;-85
2023/10/05 14:27:05;;;;;;;7.32;3.53;;;20.20;94.00;;;;;;5063701;28;20200;-84
2023/10/05 14:29:38;;;;;;;8.80;5.87;;;20.10;94.30;;;;;;5061043;28;20600;-85
2023/10/05 14:32:04;;;;;;;6.18;4.20;;;18.00;93.10;;;;;;5063470;28;20201;-84
2023/10/05 14:34:32;;;;;;;6.22;3.38;;;18.20;93.50;;;;;;5064863;28;20246;-86
2023/10/05 14:40:24;;;;;;;8.50;3.70;;;17.70;92.90;;;;;;4976084;28;20747;-86
2023/10/05 14:42:56;;;;;;;9.25;3.47;;;19.20;95.10;;;;;;5007678;28;20217;-84
2023/10/05 14:45:32;;;;;;;6.70;3.42;;;19.40;94.60;;;;;;5053695;28;20204;-85
2023/10/05 14:48:21;;;;;;;7.80;3.95;;;20.10;95.30;;;;;;5057171;28;20192;-87
2023/10/05 14:50:48;;;;;;;10.38;3.67;;;19.00;95.30;;;;;;5059697;28;20181;-87
2023/10/05 14:53:34;;;;;;;8.05;3.58;;;18.80;94.60;;;;;;5068864;28;20438;-85
2023/10/05 14:56:01;;;;;;;9.48;3.85;;;19.70;95.50;;;;;;5064945;28;20199;-84
2023/10/05 14:58:29;;;;;;;7.28;3.00;;;19.30;95.00;;;;;;5069592;28;20326;-85
2023/10/05 15:00:56;;;;;;;5.47;3.08;;;20.00;96.60;;;;;;5086001;28;20507;-85
2023/10/05 15:03:22;;;;;;;9.38;4.70;;;17.60;95.10;;;;;;5064435;28;20204;-89
2023/10/05 15:05:47;;;;;;;7.40;3.50;;;20.00;96.30;;;;;;5076676;28;20251;-84
2023/10/05 15:08:14;;;;;;;8.90;4.10;;;19.40;95.00;;;;;;5066896;28;20595;-85
2023/10/05 15:10:40;;;;;;;9.00;4.45;;;18.40;95.80;;;;;;5059489;28;20181;-90
2023/10/05 15:13:07;;;;;;;7.80;4.40;;;17.20;93.80;;;;;;5069684;28;20286;-91
2023/10/05 15:15:35;;;;;;;6.35;3.35;;;19.20;94.80;;;;;;5066357;28;20185;-89